sensor_id;sensor_type;location;lat;lon;timestamp;pressure;altitude;pressure_sealevel;temperature;humidity
50011;BME280;35899;50.352;19.390;2023-05-24T00:08:33;97428.75;;;16.67;86.49
50011;BME280;35899;50.352;19.390;2023-05-24T00:11:48;97427.07;;;16.63;87.09
50011;BME280;35899;50.352;19.390;2023-05-24T00:49:53;97435.71;;;16.34;89.51
50011;BME280;35899;50.352;19.390;2023-05-24T00:59:22;97432.26;;;16.17;90.39
50011;BME280;35899;50.352;19.390;2023-05-24T01:02:07;97435.94;;;16.08;90.71
50011;BME280;35899;50.352;19.390;2023-05-24T01:04:34;97435.98;;;16.02;90.94
50011;BME280;35899;50.352;19.390;2023-05-24T01:09:42;97434.81;;;15.88;91.11
50011;BME280;35899;50.352;19.390;2023-05-24T01:18:16;97441.95;;;15.72;92.28
50011;BME280;35899;50.352;19.390;2023-05-24T01:20:45;97447.41;;;15.68;92.22
50011;BME280;35899;50.352;19.390;2023-05-24T01:23:28;97449.98;;;15.64;92.51
50011;BME280;35899;50.352;19.390;2023-05-24T01:26:09;97455.60;;;15.60;92.70
50011;BME280;35899;50.352;19.390;2023-05-24T01:28:39;97454.84;;;15.57;93.07
50011;BME280;35899;50.352;19.390;2023-05-24T01:31:06;97453.11;;;15.55;93.05
50011;BME280;35899;50.352;19.390;2023-05-24T01:33:32;97451.38;;;15.52;93.53
50011;BME280;35899;50.352;19.390;2023-05-24T01:35:59;97453.02;;;15.48;93.46
50011;BME280;35899;50.352;19.390;2023-05-24T01:38:25;97452.55;;;15.45;93.76
50011;BME280;35899;50.352;19.390;2023-05-24T01:40:54;97450.66;;;15.43;93.82
50011;BME280;35899;50.352;19.390;2023-05-24T01:43:32;97451.27;;;15.42;93.99
50011;BME280;35899;50.352;19.390;2023-05-24T01:46:12;97452.70;;;15.40;93.90
50011;BME280;35899;50.352;19.390;2023-05-24T01:48:47;97452.00;;;15.39;94.22
50011;BME280;35899;50.352;19.390;2023-05-24T01:51:21;97454.89;;;15.35;94.22
50011;BME280;35899;50.352;19.390;2023-05-24T01:53:48;97454.29;;;15.33;94.16
50011;BME280;35899;50.352;19.390;2023-05-24T01:56:16;97452.36;;;15.31;94.44
50011;BME280;35899;50.352;19.390;2023-05-24T01:58:43;97457.68;;;15.29;94.57
50011;BME280;35899;50.352;19.390;2023-05-24T02:01:10;97463.67;;;15.26;94.42
50011;BME280;35899;50.352;19.390;2023-05-24T02:03:37;97465.23;;;15.24;94.48
50011;BME280;35899;50.352;19.390;2023-05-24T02:06:04;97467.16;;;15.22;94.62
50011;BME280;35899;50.352;19.390;2023-05-24T02:08:30;97468.05;;;15.20;94.46
50011;BME280;35899;50.352;19.390;2023-05-24T02:10:57;97469.39;;;15.19;94.54
50011;BME280;35899;50.352;19.390;2023-05-24T02:13:23;97470.51;;;15.16;94.62
50011;BME280;35899;50.352;19.390;2023-05-24T02:15:50;97475.87;;;15.13;94.61
50011;BME280;35899;50.352;19.390;2023-05-24T02:18:17;97475.33;;;15.12;94.72
50011;BME280;35899;50.352;19.390;2023-05-24T02:20:44;97479.95;;;15.11;94.76
50011;BME280;35899;50.352;19.390;2023-05-24T02:23:11;97481.09;;;15.08;94.64
50011;BME280;35899;50.352;19.390;2023-05-24T02:25:37;97482.60;;;15.05;94.54
50011;BME280;35899;50.352;19.390;2023-05-24T02:28:04;97484.83;;;15.03;94.70
50011;BME280;35899;50.352;19.390;2023-05-24T02:30:30;97485.65;;;15.02;94.66
50011;BME280;35899;50.352;19.390;2023-05-24T02:32:57;97485.17;;;15.00;94.67
50011;BME280;35899;50.352;19.390;2023-05-24T02:35:23;97487.25;;;14.98;94.98
50011;BME280;35899;50.352;19.390;2023-05-24T02:37:49;97488.83;;;14.98;94.91
50011;BME280;35899;50.352;19.390;2023-05-24T02:40:16;97486.43;;;14.98;95.14
50011;BME280;35899;50.352;19.390;2023-05-24T02:42:42;97488.08;;;14.98;95.30
50011;BME280;35899;50.352;19.390;2023-05-24T02:45:09;97490.44;;;14.99;95.49
50011;BME280;35899;50.352;19.390;2023-05-24T02:47:35;97491.79;;;15.00;95.62
50011;BME280;35899;50.352;19.390;2023-05-24T02:50:02;97490.53;;;15.02;95.67
50011;BME280;35899;50.352;19.390;2023-05-24T02:52:28;97488.36;;;15.03;95.71
50011;BME280;35899;50.352;19.390;2023-05-24T02:54:54;97491.56;;;15.04;96.42
50011;BME280;35899;50.352;19.390;2023-05-24T02:57:21;97492.08;;;15.04;96.31
50011;BME280;35899;50.352;19.390;2023-05-24T02:59:47;97491.19;;;15.04;96.29
50011;BME280;35899;50.352;19.390;2023-05-24T03:02:14;97492.36;;;15.07;96.35
50011;BME280;35899;50.352;19.390;2023-05-24T03:04:40;97491.32;;;15.10;96.57
50011;BME280;35899;50.352;19.390;2023-05-24T03:07:09;97496.96;;;15.13;96.69
50011;BME280;35899;50.352;19.390;2023-05-24T03:09:35;97496.92;;;15.15;96.52
50011;BME280;35899;50.352;19.390;2023-05-24T03:12:01;97500.00;;;15.16;96.55
50011;BME280;35899;50.352;19.390;2023-05-24T03:14:31;97499.20;;;15.15;96.35
50011;BME280;35899;50.352;19.390;2023-05-24T03:16:57;97502.32;;;15.13;96.71
50011;BME280;35899;50.352;19.390;2023-05-24T03:19:24;97500.99;;;15.11;96.68
50011;BME280;35899;50.352;19.390;2023-05-24T03:21:50;97501.68;;;15.11;96.67
50011;BME280;35899;50.352;19.390;2023-05-24T03:24:16;97503.65;;;15.11;96.96
50011;BME280;35899;50.352;19.390;2023-05-24T03:26:43;97502.32;;;15.12;97.04
50011;BME280;35899;50.352;19.390;2023-05-24T03:29:09;97506.37;;;15.13;97.01
50011;BME280;35899;50.352;19.390;2023-05-24T03:31:38;97508.08;;;15.12;97.02
50011;BME280;35899;50.352;19.390;2023-05-24T03:34:05;97509.14;;;15.12;96.90
50011;BME280;35899;50.352;19.390;2023-05-24T03:36:32;97508.04;;;15.12;97.19
50011;BME280;35899;50.352;19.390;2023-05-24T03:38:59;97507.68;;;15.12;97.07
50011;BME280;35899;50.352;19.390;2023-05-24T03:41:26;97507.36;;;15.12;97.01
50011;BME280;35899;50.352;19.390;2023-05-24T03:43:52;97513.70;;;15.11;97.05
50011;BME280;35899;50.352;19.390;2023-05-24T03:46:22;97511.23;;;15.10;97.55
50011;BME280;35899;50.352;19.390;2023-05-24T03:48:48;97512.40;;;15.09;97.10
50011;BME280;35899;50.352;19.390;2023-05-24T03:51:15;97510.36;;;15.10;97.43
50011;BME280;35899;50.352;19.390;2023-05-24T03:53:41;97515.21;;;15.12;97.34
50011;BME280;35899;50.352;19.390;2023-05-24T03:56:08;97511.06;;;15.15;97.64
50011;BME280;35899;50.352;19.390;2023-05-24T03:58:35;97514.95;;;15.17;97.45
50011;BME280;35899;50.352;19.390;2023-05-24T04:01:01;97516.02;;;15.18;97.47
50011;BME280;35899;50.352;19.390;2023-05-24T04:03:28;97516.46;;;15.20;97.31
50011;BME280;35899;50.352;19.390;2023-05-24T04:05:54;97523.05;;;15.23;97.33
50011;BME280;35899;50.352;19.390;2023-05-24T04:08:21;97524.60;;;15.24;97.52
50011;BME280;35899;50.352;19.390;2023-05-24T04:10:47;97530.60;;;15.28;97.46
50011;BME280;35899;50.352;19.390;2023-05-24T04:13:14;97533.25;;;15.31;97.28
50011;BME280;35899;50.352;19.390;2023-05-24T04:15:40;97532.84;;;15.34;97.31
50011;BME280;35899;50.352;19.390;2023-05-24T04:18:06;97534.46;;;15.38;97.42
50011;BME280;35899;50.352;19.390;2023-05-24T04:20:33;97535.30;;;15.40;97.06
50011;BME280;35899;50.352;19.390;2023-05-24T04:23:00;97541.01;;;15.42;97.32
50011;BME280;35899;50.352;19.390;2023-05-24T04:25:26;97542.57;;;15.45;97.05
50011;BME280;35899;50.352;19.390;2023-05-24T04:27:53;97548.52;;;15.48;97.11
50011;BME280;35899;50.352;19.390;2023-05-24T04:30:19;97552.75;;;15.50;96.82
50011;BME280;35899;50.352;19.390;2023-05-24T04:32:46;97551.50;;;15.50;96.92
50011;BME280;35899;50.352;19.390;2023-05-24T04:35:12;97556.89;;;15.52;96.72
50011;BME280;35899;50.352;19.390;2023-05-24T04:37:39;97558.17;;;15.56;96.73
50011;BME280;35899;50.352;19.390;2023-05-24T04:40:06;97557.02;;;15.59;96.95
50011;BME280;35899;50.352;19.390;2023-05-24T04:42:33;97561.07;;;15.65;96.57
50011;BME280;35899;50.352;19.390;2023-05-24T04:44:59;97560.23;;;15.72;96.38
50011;BME280;35899;50.352;19.390;2023-05-24T04:47:26;97564.04;;;15.76;96.34
50011;BME280;35899;50.352;19.390;2023-05-24T04:49:52;97563.63;;;15.80;96.06
50011;BME280;35899;50.352;19.390;2023-05-24T04:52:18;97567.80;;;15.85;95.81
50011;BME280;35899;50.352;19.390;2023-05-24T04:54:45;97570.22;;;15.91;95.75
50011;BME280;35899;50.352;19.390;2023-05-24T04:57:12;97569.27;;;15.95;95.25
50011;BME280;35899;50.352;19.390;2023-05-24T04:59:38;97572.44;;;16.02;95.23
50011;BME280;35899;50.352;19.390;2023-05-24T05:02:04;97572.05;;;16.06;95.16
50011;BME280;35899;50.352;19.390;2023-05-24T05:04:31;97571.98;;;16.11;95.00
50011;BME280;35899;50.352;19.390;2023-05-24T05:06:57;97577.69;;;16.16;94.54
50011;BME280;35899;50.352;19.390;2023-05-24T05:09:23;97581.45;;;16.22;94.40
50011;BME280;35899;50.352;19.390;2023-05-24T05:11:50;97584.55;;;16.27;94.05
50011;BME280;35899;50.352;19.390;2023-05-24T05:14:16;97587.02;;;16.28;93.81
50011;BME280;35899;50.352;19.390;2023-05-24T05:16:42;97593.20;;;16.27;93.71
50011;BME280;35899;50.352;19.390;2023-05-24T05:19:09;97595.20;;;16.23;93.49
50011;BME280;35899;50.352;19.390;2023-05-24T05:21:35;97599.90;;;16.21;93.45
50011;BME280;35899;50.352;19.390;2023-05-24T05:24:01;97603.73;;;16.19;93.22
50011;BME280;35899;50.352;19.390;2023-05-24T05:26:29;97603.75;;;16.14;93.20
50011;BME280;35899;50.352;19.390;2023-05-24T05:28:56;97610.49;;;16.10;92.89
50011;BME280;35899;50.352;19.390;2023-05-24T05:31:23;97609.20;;;16.05;92.97
50011;BME280;35899;50.352;19.390;2023-05-24T05:33:49;97608.64;;;16.00;92.86
50011;BME280;35899;50.352;19.390;2023-05-24T05:36:15;97615.27;;;15.96;92.87
50011;BME280;35899;50.352;19.390;2023-05-24T05:38:42;97613.88;;;15.92;92.89
50011;BME280;35899;50.352;19.390;2023-05-24T05:41:08;97618.95;;;15.90;92.84
50011;BME280;35899;50.352;19.390;2023-05-24T05:43:35;97622.35;;;15.90;92.89
50011;BME280;35899;50.352;19.390;2023-05-24T05:46:01;97625.64;;;15.88;92.80
50011;BME280;35899;50.352;19.390;2023-05-24T05:48:27;97619.92;;;15.86;92.67
50011;BME280;35899;50.352;19.390;2023-05-24T05:50:54;97621.62;;;15.88;92.70
50011;BME280;35899;50.352;19.390;2023-05-24T05:53:21;97628.14;;;15.93;92.67
50011;BME280;35899;50.352;19.390;2023-05-24T05:55:47;97630.42;;;15.96;92.54
50011;BME280;35899;50.352;19.390;2023-05-24T05:58:13;97633.66;;;15.99;92.20
50011;BME280;35899;50.352;19.390;2023-05-24T06:00:40;97636.48;;;16.02;92.07
50011;BME280;35899;50.352;19.390;2023-05-24T06:03:06;97639.78;;;16.02;92.06
50011;BME280;35899;50.352;19.390;2023-05-24T06:05:33;97646.98;;;15.96;91.82
50011;BME280;35899;50.352;19.390;2023-05-24T06:08:00;97657.00;;;15.90;92.01
50011;BME280;35899;50.352;19.390;2023-05-24T06:10:26;97667.36;;;15.82;92.07
50011;BME280;35899;50.352;19.390;2023-05-24T06:12:52;97665.44;;;15.71;92.01
50011;BME280;35899;50.352;19.390;2023-05-24T06:15:19;97671.85;;;15.60;91.99
50011;BME280;35899;50.352;19.390;2023-05-24T06:17:45;97673.88;;;15.44;92.02
50011;BME280;35899;50.352;19.390;2023-05-24T06:20:11;97676.02;;;15.27;92.67
50011;BME280;35899;50.352;19.390;2023-05-24T06:22:38;97677.51;;;15.09;93.07
50011;BME280;35899;50.352;19.390;2023-05-24T06:25:04;97679.67;;;14.95;93.58
50011;BME280;35899;50.352;19.390;2023-05-24T06:27:31;97687.66;;;14.84;94.29
50011;BME280;35899;50.352;19.390;2023-05-24T06:29:57;97688.45;;;14.77;94.66
50011;BME280;35899;50.352;19.390;2023-05-24T06:32:23;97695.46;;;14.75;94.95
50011;BME280;35899;50.352;19.390;2023-05-24T06:34:50;97700.64;;;14.70;94.67
50011;BME280;35899;50.352;19.390;2023-05-24T06:37:16;97705.76;;;14.63;95.27
50011;BME280;35899;50.352;19.390;2023-05-24T06:39:43;97712.59;;;14.57;94.98
50011;BME280;35899;50.352;19.390;2023-05-24T06:42:09;97712.85;;;14.52;95.30
50011;BME280;35899;50.352;19.390;2023-05-24T06:44:35;97713.59;;;14.49;95.40
50011;BME280;35899;50.352;19.390;2023-05-24T06:47:02;97719.23;;;14.48;95.78
50011;BME280;35899;50.352;19.390;2023-05-24T06:49:29;97720.73;;;14.45;95.66
50011;BME280;35899;50.352;19.390;2023-05-24T06:51:55;97723.88;;;14.41;95.92
50011;BME280;35899;50.352;19.390;2023-05-24T06:54:22;97726.31;;;14.39;96.13
50011;BME280;35899;50.352;19.390;2023-05-24T06:56:48;97721.02;;;14.38;96.43
50011;BME280;35899;50.352;19.390;2023-05-24T06:59:14;97726.83;;;14.37;96.35
50011;BME280;35899;50.352;19.390;2023-05-24T07:01:41;97724.91;;;14.35;96.66
50011;BME280;35899;50.352;19.390;2023-05-24T07:04:08;97727.14;;;14.36;96.69
50011;BME280;35899;50.352;19.390;2023-05-24T07:06:34;97730.09;;;14.40;96.63
50011;BME280;35899;50.352;19.390;2023-05-24T07:09:01;97726.70;;;14.41;97.11
50011;BME280;35899;50.352;19.390;2023-05-24T07:11:27;97734.95;;;14.44;96.86
50011;BME280;35899;50.352;19.390;2023-05-24T07:13:54;97739.89;;;14.45;96.83
50011;BME280;35899;50.352;19.390;2023-05-24T07:16:20;97745.84;;;14.45;97.11
50011;BME280;35899;50.352;19.390;2023-05-24T07:18:46;97746.77;;;14.42;97.24
50011;BME280;35899;50.352;19.390;2023-05-24T07:21:13;97749.27;;;14.41;97.33
50011;BME280;35899;50.352;19.390;2023-05-24T07:23:39;97752.24;;;14.39;97.24
50011;BME280;35899;50.352;19.390;2023-05-24T07:26:06;97760.66;;;14.39;97.36
50011;BME280;35899;50.352;19.390;2023-05-24T07:31:26;97762.92;;;14.37;98.07
50011;BME280;35899;50.352;19.390;2023-05-24T07:33:52;97769.16;;;14.35;98.23
50011;BME280;35899;50.352;19.390;2023-05-24T07:36:19;97768.73;;;14.40;98.28
50011;BME280;35899;50.352;19.390;2023-05-24T07:38:46;97769.56;;;14.44;97.92
50011;BME280;35899;50.352;19.390;2023-05-24T07:41:12;97771.51;;;14.50;97.80
50011;BME280;35899;50.352;19.390;2023-05-24T07:43:38;97774.95;;;14.59;97.45
50011;BME280;35899;50.352;19.390;2023-05-24T07:46:05;97778.34;;;14.63;97.32
50011;BME280;35899;50.352;19.390;2023-05-24T07:48:31;97781.92;;;14.66;97.16
50011;BME280;35899;50.352;19.390;2023-05-24T07:50:57;97785.41;;;14.64;96.87
50011;BME280;35899;50.352;19.390;2023-05-24T07:53:24;97787.28;;;14.63;96.90
50011;BME280;35899;50.352;19.390;2023-05-24T07:55:50;97786.63;;;14.62;96.65
50011;BME280;35899;50.352;19.390;2023-05-24T07:58:17;97790.03;;;14.65;96.87
50011;BME280;35899;50.352;19.390;2023-05-24T08:00:43;97788.47;;;14.75;96.43
50011;BME280;35899;50.352;19.390;2023-05-24T08:03:09;97792.52;;;14.90;95.90
50011;BME280;35899;50.352;19.390;2023-05-24T08:05:36;97792.24;;;15.10;95.82
50011;BME280;35899;50.352;19.390;2023-05-24T08:08:02;97795.73;;;15.26;95.33
50011;BME280;35899;50.352;19.390;2023-05-24T08:10:29;97803.80;;;15.33;94.71
50011;BME280;35899;50.352;19.390;2023-05-24T08:12:55;97804.32;;;15.33;93.82
50011;BME280;35899;50.352;19.390;2023-05-24T08:15:21;97807.74;;;15.24;92.70
50011;BME280;35899;50.352;19.390;2023-05-24T08:17:48;97811.95;;;15.20;92.78
50011;BME280;35899;50.352;19.390;2023-05-24T08:20:14;97812.13;;;15.18;92.68
50011;BME280;35899;50.352;19.390;2023-05-24T08:22:41;97811.86;;;15.17;92.73
50011;BME280;35899;50.352;19.390;2023-05-24T08:25:09;97820.33;;;15.16;92.95
50011;BME280;35899;50.352;19.390;2023-05-24T08:27:35;97827.16;;;15.14;93.06
50011;BME280;35899;50.352;19.390;2023-05-24T08:30:02;97826.80;;;15.06;92.81
50011;BME280;35899;50.352;19.390;2023-05-24T08:35:21;97826.54;;;14.92;93.12
50011;BME280;35899;50.352;19.390;2023-05-24T08:37:48;97826.75;;;14.83;93.06
50011;BME280;35899;50.352;19.390;2023-05-24T08:40:15;97833.40;;;14.75;92.97
50011;BME280;35899;50.352;19.390;2023-05-24T08:42:42;97840.84;;;14.64;92.92
50011;BME280;35899;50.352;19.390;2023-05-24T08:45:10;97843.30;;;14.55;93.46
50011;BME280;35899;50.352;19.390;2023-05-24T08:47:37;97848.73;;;14.51;93.51
50011;BME280;35899;50.352;19.390;2023-05-24T08:50:04;97855.67;;;14.45;93.73
50011;BME280;35899;50.352;19.390;2023-05-24T08:52:31;97857.25;;;14.39;94.11
50011;BME280;35899;50.352;19.390;2023-05-24T08:54:58;97858.88;;;14.32;94.01
50011;BME280;35899;50.352;19.390;2023-05-24T08:57:25;97865.44;;;14.28;94.07
50011;BME280;35899;50.352;19.390;2023-05-24T08:59:52;97867.75;;;14.24;94.25
50011;BME280;35899;50.352;19.390;2023-05-24T09:02:19;97867.89;;;14.16;94.30
50011;BME280;35899;50.352;19.390;2023-05-24T09:04:45;97872.49;;;14.12;94.25
50011;BME280;35899;50.352;19.390;2023-05-24T09:07:16;97873.01;;;14.09;94.19
50011;BME280;35899;50.352;19.390;2023-05-24T09:09:47;97877.13;;;14.10;94.26
50011;BME280;35899;50.352;19.390;2023-05-24T09:12:16;97879.82;;;14.07;94.39
50011;BME280;35899;50.352;19.390;2023-05-24T09:15:02;97886.41;;;14.03;94.29
50011;BME280;35899;50.352;19.390;2023-05-24T09:17:30;97885.00;;;13.99;93.86
50011;BME280;35899;50.352;19.390;2023-05-24T09:20:00;97886.61;;;13.97;93.84
50011;BME280;35899;50.352;19.390;2023-05-24T09:22:27;97897.27;;;13.98;94.00
50011;BME280;35899;50.352;19.390;2023-05-24T09:24:57;97899.05;;;14.04;93.89
50011;BME280;35899;50.352;19.390;2023-05-24T09:27:27;97905.73;;;14.11;93.64
50011;BME280;35899;50.352;19.390;2023-05-24T09:29:58;97907.77;;;14.16;93.23
50011;BME280;35899;50.352;19.390;2023-05-24T09:32:24;97905.90;;;14.17;92.82
50011;BME280;35899;50.352;19.390;2023-05-24T09:34:52;97909.86;;;14.20;92.37
50011;BME280;35899;50.352;19.390;2023-05-24T09:37:19;97915.86;;;14.23;92.33
50011;BME280;35899;50.352;19.390;2023-05-24T09:39:59;97914.83;;;14.29;92.31
50011;BME280;35899;50.352;19.390;2023-05-24T09:42:26;97915.23;;;14.33;92.03
50011;BME280;35899;50.352;19.390;2023-05-24T09:45:02;97919.66;;;14.36;91.64
50011;BME280;35899;50.352;19.390;2023-05-24T09:47:30;97923.67;;;14.34;90.89
50011;BME280;35899;50.352;19.390;2023-05-24T09:50:00;97927.02;;;14.27;90.55
50011;BME280;35899;50.352;19.390;2023-05-24T09:52:27;97927.11;;;14.24;90.60
50011;BME280;35899;50.352;19.390;2023-05-24T09:54:54;97926.80;;;14.25;90.60
50011;BME280;35899;50.352;19.390;2023-05-24T09:57:20;97926.42;;;14.28;90.54
50011;BME280;35899;50.352;19.390;2023-05-24T09:59:50;97924.10;;;14.31;90.12
50011;BME280;35899;50.352;19.390;2023-05-24T10:02:16;97924.84;;;14.30;89.83
50011;BME280;35899;50.352;19.390;2023-05-24T10:04:43;97925.77;;;14.30;89.71
50011;BME280;35899;50.352;19.390;2023-05-24T10:07:10;97927.50;;;14.32;89.88
50011;BME280;35899;50.352;19.390;2023-05-24T10:09:37;97929.75;;;14.32;89.90
50011;BME280;35899;50.352;19.390;2023-05-24T10:12:04;97932.85;;;14.36;89.92
50011;BME280;35899;50.352;19.390;2023-05-24T10:14:35;97931.92;;;14.39;89.70
50011;BME280;35899;50.352;19.390;2023-05-24T10:17:03;97933.33;;;14.41;89.52
50011;BME280;35899;50.352;19.390;2023-05-24T10:19:33;97938.53;;;14.41;89.21
50011;BME280;35899;50.352;19.390;2023-05-24T10:21:59;97930.89;;;14.47;89.35
50011;BME280;35899;50.352;19.390;2023-05-24T10:24:28;97932.39;;;14.58;89.08
50011;BME280;35899;50.352;19.390;2023-05-24T10:26:59;97932.06;;;14.68;88.22
50011;BME280;35899;50.352;19.390;2023-05-24T10:29:29;97931.70;;;14.76;87.81
50011;BME280;35899;50.352;19.390;2023-05-24T10:31:59;97934.66;;;14.82;87.23
50011;BME280;35899;50.352;19.390;2023-05-24T10:34:26;97934.74;;;14.87;87.19
50011;BME280;35899;50.352;19.390;2023-05-24T10:36:53;97939.05;;;14.96;87.04
50011;BME280;35899;50.352;19.390;2023-05-24T10:39:20;97938.66;;;15.02;87.04
50011;BME280;35899;50.352;19.390;2023-05-24T10:41:47;97942.11;;;15.13;86.50
50011;BME280;35899;50.352;19.390;2023-05-24T10:44:16;97943.48;;;15.28;86.20
50011;BME280;35899;50.352;19.390;2023-05-24T10:49:29;97947.55;;;15.75;84.62
50011;BME280;35899;50.352;19.390;2023-05-24T10:52:17;97953.92;;;15.85;83.99
50011;BME280;35899;50.352;19.390;2023-05-24T10:57:42;97961.27;;;15.89;82.82
50011;BME280;35899;50.352;19.390;2023-05-24T11:03:08;97958.45;;;15.76;82.31
50011;BME280;35899;50.352;19.390;2023-05-24T11:08:24;97958.55;;;15.69;82.05
50011;BME280;35899;50.352;19.390;2023-05-24T11:13:54;97959.40;;;15.84;80.78
50011;BME280;35899;50.352;19.390;2023-05-24T11:19:37;97964.65;;;16.01;80.44
50011;BME280;35899;50.352;19.390;2023-05-24T11:22:08;97971.15;;;16.01;79.87
50011;BME280;35899;50.352;19.390;2023-05-24T11:24:58;97969.88;;;16.01;80.38
50011;BME280;35899;50.352;19.390;2023-05-24T11:27:25;97971.06;;;16.06;80.35
50011;BME280;35899;50.352;19.390;2023-05-24T11:29:52;97966.94;;;16.07;79.88
50011;BME280;35899;50.352;19.390;2023-05-24T11:32:19;97966.14;;;15.99;79.38
50011;BME280;35899;50.352;19.390;2023-05-24T11:35:03;97970.17;;;15.93;79.68
50011;BME280;35899;50.352;19.390;2023-05-24T11:37:30;97966.16;;;15.91;79.73
50011;BME280;35899;50.352;19.390;2023-05-24T11:40:15;97963.89;;;15.91;80.08
50011;BME280;35899;50.352;19.390;2023-05-24T11:42:42;97962.50;;;15.89;79.10
50011;BME280;35899;50.352;19.390;2023-05-24T11:45:09;97966.48;;;15.89;78.67
50011;BME280;35899;50.352;19.390;2023-05-24T11:47:39;97960.23;;;15.91;78.84
50011;BME280;35899;50.352;19.390;2023-05-24T11:50:05;97962.34;;;16.00;78.88
50011;BME280;35899;50.352;19.390;2023-05-24T11:52:32;97961.83;;;16.15;78.84
50011;BME280;35899;50.352;19.390;2023-05-24T11:54:58;97967.03;;;16.42;78.71
50011;BME280;35899;50.352;19.390;2023-05-24T11:57:36;97970.25;;;16.71;77.98
50011;BME280;35899;50.352;19.390;2023-05-24T12:00:03;97970.88;;;16.98;77.37
50011;BME280;35899;50.352;19.390;2023-05-24T12:02:30;97971.89;;;17.13;76.69
50011;BME280;35899;50.352;19.390;2023-05-24T12:05:05;97972.64;;;17.12;75.89
50011;BME280;35899;50.352;19.390;2023-05-24T12:07:32;97972.77;;;17.03;75.16
50011;BME280;35899;50.352;19.390;2023-05-24T12:09:59;97970.60;;;16.78;75.39
50011;BME280;35899;50.352;19.390;2023-05-24T12:12:25;97973.88;;;16.68;76.34
50011;BME280;35899;50.352;19.390;2023-05-24T12:15:00;97969.39;;;16.65;76.79
50011;BME280;35899;50.352;19.390;2023-05-24T12:17:26;97964.52;;;16.69;76.61
50011;BME280;35899;50.352;19.390;2023-05-24T12:19:52;97959.77;;;16.73;76.60
50011;BME280;35899;50.352;19.390;2023-05-24T12:22:24;97963.31;;;16.80;76.52
50011;BME280;35899;50.352;19.390;2023-05-24T12:24:52;97964.15;;;16.76;76.28
50011;BME280;35899;50.352;19.390;2023-05-24T12:27:18;97967.23;;;16.68;76.14
50011;BME280;35899;50.352;19.390;2023-05-24T12:29:44;97966.10;;;16.56;75.85
50011;BME280;35899;50.352;19.390;2023-05-24T12:32:11;97965.09;;;16.48;75.88
50011;BME280;35899;50.352;19.390;2023-05-24T12:34:41;97967.04;;;16.51;75.93
50011;BME280;35899;50.352;19.390;2023-05-24T12:37:13;97970.63;;;16.61;75.70
50011;BME280;35899;50.352;19.390;2023-05-24T12:39:40;97972.59;;;16.61;75.30
50011;BME280;35899;50.352;19.390;2023-05-24T12:42:06;97975.04;;;16.61;75.69
50011;BME280;35899;50.352;19.390;2023-05-24T12:44:34;97975.85;;;16.56;75.38
50011;BME280;35899;50.352;19.390;2023-05-24T12:47:02;97973.69;;;16.50;75.25
50011;BME280;35899;50.352;19.390;2023-05-24T12:52:23;97972.30;;;16.44;75.41
50011;BME280;35899;50.352;19.390;2023-05-24T12:54:50;97969.72;;;16.47;75.53
50011;BME280;35899;50.352;19.390;2023-05-24T12:57:17;97968.75;;;16.55;75.73
50011;BME280;35899;50.352;19.390;2023-05-24T12:59:44;97967.69;;;16.70;75.47
50011;BME280;35899;50.352;19.390;2023-05-24T13:02:16;97969.08;;;16.86;74.37
50011;BME280;35899;50.352;19.390;2023-05-24T13:04:43;97968.13;;;16.97;73.64
50011;BME280;35899;50.352;19.390;2023-05-24T13:07:09;97971.81;;;17.21;73.67
50011;BME280;35899;50.352;19.390;2023-05-24T13:09:38;97970.98;;;17.40;73.07
50011;BME280;35899;50.352;19.390;2023-05-24T13:12:05;97974.89;;;17.66;73.15
50011;BME280;35899;50.352;19.390;2023-05-24T13:14:33;97973.39;;;17.98;73.13
50011;BME280;35899;50.352;19.390;2023-05-24T13:16:59;97971.98;;;18.14;72.14
50011;BME280;35899;50.352;19.390;2023-05-24T13:19:26;97972.66;;;18.17;71.64
50011;BME280;35899;50.352;19.390;2023-05-24T13:21:53;97973.17;;;18.05;70.77
50011;BME280;35899;50.352;19.390;2023-05-24T13:24:22;97973.58;;;17.92;70.98
50011;BME280;35899;50.352;19.390;2023-05-24T13:26:48;97972.44;;;17.79;70.96
50011;BME280;35899;50.352;19.390;2023-05-24T13:29:20;97973.69;;;17.65;71.14
50011;BME280;35899;50.352;19.390;2023-05-24T13:32:00;97974.53;;;17.56;71.56
50011;BME280;35899;50.352;19.390;2023-05-24T13:34:26;97978.73;;;17.45;71.38
50011;BME280;35899;50.352;19.390;2023-05-24T13:36:53;97976.17;;;17.30;71.53
50011;BME280;35899;50.352;19.390;2023-05-24T13:39:20;97972.50;;;17.19;71.81
50011;BME280;35899;50.352;19.390;2023-05-24T13:41:47;97974.81;;;17.06;72.00
50011;BME280;35899;50.352;19.390;2023-05-24T13:44:14;97975.52;;;17.00;72.60
50011;BME280;35899;50.352;19.390;2023-05-24T13:46:41;97980.41;;;17.00;72.76
50011;BME280;35899;50.352;19.390;2023-05-24T13:49:09;97981.86;;;16.95;72.71
50011;BME280;35899;50.352;19.390;2023-05-24T13:51:36;97977.91;;;16.88;72.52
50011;BME280;35899;50.352;19.390;2023-05-24T13:54:03;97977.40;;;16.80;72.58
50011;BME280;35899;50.352;19.390;2023-05-24T13:56:30;97977.11;;;16.74;72.66
50011;BME280;35899;50.352;19.390;2023-05-24T13:58:56;97979.72;;;16.74;73.10
50011;BME280;35899;50.352;19.390;2023-05-24T14:01:23;97979.23;;;16.78;73.31
50011;BME280;35899;50.352;19.390;2023-05-24T14:03:49;97981.29;;;16.76;72.97
50011;BME280;35899;50.352;19.390;2023-05-24T14:06:16;97978.96;;;16.71;72.56
50011;BME280;35899;50.352;19.390;2023-05-24T14:08:43;97974.14;;;16.65;72.52
50011;BME280;35899;50.352;19.390;2023-05-24T14:11:11;97973.27;;;16.61;72.78
50011;BME280;35899;50.352;19.390;2023-05-24T14:13:37;97975.09;;;16.60;73.26
50011;BME280;35899;50.352;19.390;2023-05-24T14:16:07;97974.30;;;16.54;72.88
50011;BME280;35899;50.352;19.390;2023-05-24T14:18:35;97974.61;;;16.43;73.09